Time;durP1;ratioP1;P1;durP2;ratioP2;P2;SDS_P1;SDS_P2;PMS_P1;PMS_P2;Temp;Humidity;BMP_temperature;BMP_pressure;BME280_temperature;BME280_humidity;BME280_pressure;Samples;Min_cycle;Max_cycle;Signal;HPM_P1;HPM_P2
2021/11/03 00:03:00;;;;;;;43.95;21.35;;;;;;;10.43;82.65;100305.66;6340271;28;20435;-75
2021/11/03 00:06:04;;;;;;;42.90;20.92;;;;;;;10.32;83.27;100306.44;6341176;28;20183;-75
2021/11/03 00:09:13;;;;;;;39.53;20.67;;;;;;;10.36;83.58;100299.47;6341239;28;20183;-74
2021/11/03 00:12:17;;;;;;;44.70;21.33;;;;;;;10.44;82.99;100307.34;6341449;28;20224;-75
2021/11/03 00:15:21;;;;;;;47.55;22.00;;;;;;;10.46;82.44;100313.41;6340784;28;20187;-75
2021/11/03 00:18:27;;;;;;;42.47;21.25;;;;;;;10.43;82.55;100311.13;6341391;28;20183;-75
2021/11/03 00:21:31;;;;;;;52.05;21.00;;;;;;;10.36;83.70;100308.47;6340189;28;20183;-75
2021/11/03 00:24:37;;;;;;;43.33;20.80;;;;;;;10.30;83.81;100300.38;6340771;28;20206;-75
2021/11/03 00:27:41;;;;;;;36.83;20.42;;;;;;;10.40;83.58;100308.88;6339652;28;20411;-75
2021/11/03 00:30:48;;;;;;;44.30;20.98;;;;;;;10.33;84.02;100299.91;6341020;28;20262;-74
2021/11/03 00:33:52;;;;;;;40.28;20.90;;;;;;;10.42;83.68;100293.94;6339597;28;20493;-74
2021/11/03 00:36:56;;;;;;;40.92;21.45;;;;;;;10.40;84.26;100306.16;6339457;28;20187;-75
2021/11/03 00:40:03;;;;;;;43.53;20.52;;;;;;;10.20;86.44;100289.16;6321640;28;20209;-75
2021/11/03 00:43:10;;;;;;;44.00;22.00;;;;;;;10.34;86.41;100304.31;6339343;28;20402;-75
2021/11/03 00:46:14;;;;;;;42.60;22.85;;;;;;;10.34;86.76;100291.53;6322089;28;20198;-75
2021/11/03 00:49:19;;;;;;;43.97;22.65;;;;;;;10.24;88.24;100295.84;6340289;28;20189;-75
2021/11/03 00:52:24;;;;;;;45.63;22.20;;;;;;;10.26;88.59;100293.72;6320649;28;20214;-75
2021/11/03 00:55:30;;;;;;;47.03;22.42;;;;;;;10.20;89.29;100305.53;6322200;28;20334;-74
2021/11/03 00:58:34;;;;;;;47.00;23.92;;;;;;;10.11;91.07;100301.41;6321587;28;20539;-74
2021/11/03 01:01:38;;;;;;;45.00;22.98;;;;;;;10.18;91.19;100291.28;6321180;28;20393;-74
2021/11/03 01:04:45;;;;;;;49.47;23.55;;;;;;;9.96;92.35;100282.72;6320996;28;20410;-74
2021/11/03 01:07:49;;;;;;;46.75;23.08;;;;;;;9.98;92.62;100286.88;6340136;28;20214;-74
2021/11/03 01:10:55;;;;;;;43.58;22.60;;;;;;;10.04;92.91;100282.38;6339976;28;20220;-74
2021/11/03 01:14:00;;;;;;;45.00;21.52;;;;;;;10.03;93.00;100283.47;6339668;28;20249;-74
2021/11/03 01:17:07;;;;;;;45.70;22.65;;;;;;;9.95;94.28;100284.59;6321698;28;20205;-74
2021/11/03 01:20:13;;;;;;;47.95;22.40;;;;;;;9.80;96.15;100284.13;6338518;28;20489;-74
2021/11/03 01:23:18;;;;;;;54.60;23.88;;;;;;;9.77;96.88;100284.59;6338282;28;20498;-74
2021/11/03 01:26:23;;;;;;;54.10;22.85;;;;;;;9.93;95.93;100278.56;6339307;28;20187;-74
2021/11/03 01:29:27;;;;;;;46.53;23.23;;;;;;;9.92;95.61;100276.88;6338260;28;20489;-74
2021/11/03 01:32:32;;;;;;;45.13;22.55;;;;;;;9.95;95.91;100281.88;6321104;28;20265;-75
2021/11/03 01:35:37;;;;;;;44.25;21.55;;;;;;;9.95;96.14;100273.69;6320864;28;20202;-75
2021/11/03 01:38:42;;;;;;;45.83;22.48;;;;;;;9.84;96.84;100274.44;6320318;28;20385;-74
2021/11/03 01:41:47;;;;;;;46.63;22.35;;;;;;;9.91;96.45;100268.94;6321113;28;20234;-74
2021/11/03 01:44:51;;;;;;;44.38;20.80;;;;;;;9.98;96.59;100273.25;6320024;28;20318;-74
2021/11/03 01:47:57;;;;;;;45.63;21.20;;;;;;;9.96;96.13;100256.28;6320433;28;20238;-74
2021/11/03 01:51:01;;;;;;;45.65;20.45;;;;;;;9.91;97.19;100269.75;6320442;28;20199;-74
2021/11/03 01:54:10;;;;;;;42.65;19.92;;;;;;;10.05;95.88;100271.28;6319519;28;20517;-74
2021/11/03 01:57:18;;;;;;;38.03;19.58;;;;;;;9.92;96.94;100265.97;6319645;28;20206;-74
2021/11/03 02:00:31;;;;;;;35.47;19.20;;;;;;;9.92;97.09;100260.53;6319309;28;20199;-74
2021/11/03 02:03:41;;;;;;;46.42;19.58;;;;;;;10.03;96.97;100254.31;6318977;28;20253;-74
2021/11/03 02:06:47;;;;;;;33.28;17.33;;;;;;;10.01;96.97;100259.16;6319521;28;20199;-74
2021/11/03 02:09:52;;;;;;;42.72;19.25;;;;;;;9.74;99.29;100251.50;6320069;28;20394;-74
2021/11/03 02:12:58;;;;;;;34.78;18.15;;;;;;;9.83;99.11;100261.91;6320363;28;20256;-74
2021/11/03 02:16:04;;;;;;;39.35;18.08;;;;;;;9.84;99.03;100249.91;6319327;28;20509;-74
2021/11/03 02:19:14;;;;;;;37.75;18.50;;;;;;;9.80;99.18;100251.44;6338413;28;20183;-74
2021/11/03 02:22:24;;;;;;;34.90;17.48;;;;;;;9.97;98.08;100241.59;6338370;28;20260;-74
2021/11/03 02:25:35;;;;;;;38.03;17.92;;;;;;;9.76;100.00;100242.03;6319823;28;20229;-75
2021/11/03 02:28:43;;;;;;;36.78;17.45;;;;;;;9.91;98.82;100247.94;6319608;28;20381;-73
2021/11/03 02:31:51;;;;;;;39.03;18.92;;;;;;;9.82;99.78;100232.13;6319205;28;20278;-75
2021/11/03 02:34:55;;;;;;;41.15;18.63;;;;;;;9.74;100.00;100236.00;6318962;28;20202;-75
2021/11/03 02:38:00;;;;;;;36.53;17.67;;;;;;;9.94;99.07;100236.59;6337746;28;20261;-75
2021/11/03 02:41:11;;;;;;;40.13;18.70;;;;;;;9.81;100.00;100231.28;6338107;28;20183;-75
2021/11/03 02:44:17;;;;;;;36.67;16.92;;;;;;;10.00;99.43;100223.97;6318776;28;20223;-74
2021/11/03 02:47:21;;;;;;;38.35;17.85;;;;;;;9.90;100.00;100227.22;6337962;28;20183;-75
2021/11/03 02:50:26;;;;;;;36.72;17.58;;;;;;;9.81;100.00;100220.41;6337711;28;20190;-75
2021/11/03 02:53:31;;;;;;;33.80;17.30;;;;;;;9.80;100.00;100224.22;6318676;28;20226;-74
2021/11/03 02:56:42;;;;;;;36.58;17.98;;;;;;;9.77;100.00;100230.09;6337205;28;20224;-75
2021/11/03 02:59:47;;;;;;;37.72;17.08;;;;;;;9.85;100.00;100227.09;6318468;28;20520;-75
2021/11/03 03:02:52;;;;;;;39.17;18.15;;;;;;;9.95;100.00;100232.00;6319696;28;20233;-75
2021/11/03 03:06:04;;;;;;;37.03;17.75;;;;;;;9.90;100.00;100227.22;6318413;28;20226;-75
2021/11/03 03:09:11;;;;;;;37.72;17.73;;;;;;;9.91;100.00;100226.16;6320046;28;20262;-75
2021/11/03 03:12:21;;;;;;;34.78;17.25;;;;;;;9.85;100.00;100227.09;6324362;28;20205;-75
2021/11/03 03:15:27;;;;;;;45.33;18.85;;;;;;;9.86;100.00;100228.72;6324426;28;20234;-75
2021/11/03 03:18:31;;;;;;;39.70;18.15;;;;;;;9.80;100.00;100224.22;6324596;28;20198;-74
2021/11/03 03:21:37;;;;;;;37.38;17.50;;;;;;;9.81;100.00;100228.56;6323791;28;20199;-75
2021/11/03 03:24:41;;;;;;;36.08;17.95;;;;;;;9.82;100.00;100226.69;6324102;28;20218;-75
2021/11/03 03:27:48;;;;;;;37.22;17.42;;;;;;;9.76;100.00;100222.13;6324310;28;20206;-75
2021/11/03 03:30:52;;;;;;;35.30;17.80;;;;;;;9.75;100.00;100215.88;6323035;28;20333;-74
2021/11/03 03:34:00;;;;;;;41.63;18.90;;;;;;;9.71;100.00;100203.75;6324284;28;20198;-75
2021/11/03 03:37:07;;;;;;;39.20;18.95;;;;;;;9.81;100.00;100214.16;6323050;28;20206;-75
2021/11/03 03:40:13;;;;;;;48.05;19.27;;;;;;;9.90;100.00;100212.78;6323915;28;20202;-74
2021/11/03 03:43:19;;;;;;;43.20;19.08;;;;;;;9.84;100.00;100209.06;6341615;28;20183;-75
2021/11/03 03:46:28;;;;;;;46.50;20.45;;;;;;;9.73;100.00;100212.53;6323355;28;20254;-75
2021/11/03 03:49:35;;;;;;;50.78;20.60;;;;;;;9.84;100.00;100214.50;6323773;28;20203;-75
2021/11/03 03:52:42;;;;;;;39.40;18.85;;;;;;;9.88;100.00;100204.84;6322579;28;20246;-75
2021/11/03 03:55:46;;;;;;;46.03;19.30;;;;;;;9.91;100.00;100209.81;6323777;28;20203;-75
2021/11/03 03:58:52;;;;;;;41.10;19.13;;;;;;;9.92;100.00;100205.19;6340794;28;20250;-74
2021/11/03 04:01:57;;;;;;;32.00;16.45;;;;;;;9.88;100.00;100204.84;6323585;28;20271;-75
2021/11/03 04:05:01;;;;;;;32.95;16.08;;;;;;;9.94;100.00;100220.25;6323185;28;20222;-74
2021/11/03 04:08:06;;;;;;;26.02;14.52;;;;;;;9.92;100.00;100216.94;6322796;28;20415;-75
2021/11/03 04:11:10;;;;;;;32.50;14.75;;;;;;;9.95;100.00;100221.94;6322792;28;20199;-74
2021/11/03 04:14:17;;;;;;;23.58;12.50;;;;;;;9.96;100.00;100212.69;6322398;28;20198;-74
2021/11/03 04:17:23;;;;;;;25.55;12.88;;;;;;;9.86;100.00;100217.81;6323605;28;20211;-75
2021/11/03 04:20:28;;;;;;;21.33;12.30;;;;;;;9.89;100.00;100224.72;6323193;28;20234;-75
2021/11/03 04:23:33;;;;;;;20.98;11.68;;;;;;;9.90;100.00;100224.50;6321400;28;20651;-75
2021/11/03 04:26:42;;;;;;;19.75;10.65;;;;;;;9.98;100.00;100221.47;6321629;28;20244;-75
2021/11/03 04:29:48;;;;;;;16.08;10.07;;;;;;;9.93;100.00;100224.06;6322564;28;20198;-75
2021/11/03 04:32:53;;;;;;;14.25;9.45;;;;;;;10.00;100.00;100222.06;6322568;28;20252;-76
2021/11/03 04:35:59;;;;;;;15.50;10.20;;;;;;;9.97;100.00;100217.06;6321744;28;20385;-75
2021/11/03 04:39:08;;;;;;;14.30;10.05;;;;;;;10.02;100.00;100227.28;6322934;28;20199;-75
2021/11/03 04:42:15;;;;;;;13.43;8.88;;;;;;;9.98;100.00;100226.94;6321776;28;20199;-75
2021/11/03 04:45:23;;;;;;;13.65;9.07;;;;;;;9.80;100.00;100226.09;6340696;28;20241;-75
2021/11/03 04:48:28;;;;;;;15.23;8.65;;;;;;;9.97;100.00;100227.97;6321526;28;20198;-75
2021/11/03 04:51:33;;;;;;;12.65;8.35;;;;;;;9.81;100.00;100231.28;6340828;28;20183;-75
2021/11/03 04:54:37;;;;;;;15.80;8.77;;;;;;;9.76;100.00;100231.16;6312503;28;20235;-76
2021/11/03 04:57:42;;;;;;;14.07;8.82;;;;;;;9.85;100.00;100227.09;6313419;28;20247;-74
2021/11/03 05:00:50;;;;;;;12.85;8.65;;;;;;;9.92;100.00;100233.28;6312419;28;20274;-75
2021/11/03 05:03:56;;;;;;;10.25;8.23;;;;;;;9.93;100.00;100229.50;6312936;28;20514;-74
2021/11/03 05:07:00;;;;;;;15.30;9.20;;;;;;;9.91;100.00;100226.16;6313539;28;20514;-74
2021/11/03 05:10:06;;;;;;;13.13;8.88;;;;;;;9.88;100.00;100232.09;6313570;28;20206;-74
2021/11/03 05:13:11;;;;;;;14.10;9.25;;;;;;;9.87;100.00;100227.69;6314649;28;20289;-74
2021/11/03 05:16:21;;;;;;;13.93;9.40;;;;;;;9.89;100.00;100250.06;6312756;28;20210;-74
2021/11/03 05:19:30;;;;;;;18.23;10.27;;;;;;;9.78;100.00;100250.84;6312600;28;20580;-74
2021/11/03 05:22:41;;;;;;;20.52;11.13;;;;;;;9.84;100.00;100247.19;6312996;28;20231;-74
2021/11/03 05:25:45;;;;;;;27.05;12.27;;;;;;;9.78;100.00;100242.69;6314478;28;20211;-74
2021/11/03 05:28:53;;;;;;;24.13;12.50;;;;;;;9.83;100.00;100245.56;6313107;28;20203;-74
2021/11/03 05:31:59;;;;;;;19.85;12.35;;;;;;;9.91;100.00;100253.41;6313038;28;20498;-74
2021/11/03 05:35:04;;;;;;;19.45;11.77;;;;;;;10.03;100.00;100250.75;6313257;28;20266;-75
2021/11/03 05:38:11;;;;;;;28.13;12.95;;;;;;;9.95;100.00;100249.19;6313966;28;20219;-75
2021/11/03 05:41:15;;;;;;;23.48;11.43;;;;;;;9.97;100.00;100252.50;6314093;28;20229;-75
2021/11/03 05:44:20;;;;;;;20.23;12.68;;;;;;;9.91;100.00;100241.69;6312925;28;20183;-75
2021/11/03 05:47:28;;;;;;;23.58;12.55;;;;;;;9.77;100.00;100262.78;6314003;28;20218;-75
2021/11/03 05:50:34;;;;;;;24.08;12.73;;;;;;;9.90;100.00;100251.75;6312618;28;20573;-74
2021/11/03 05:53:39;;;;;;;23.50;12.68;;;;;;;9.96;100.00;100239.94;6324010;28;20284;-75
2021/11/03 05:56:43;;;;;;;23.90;12.68;;;;;;;10.03;100.00;100246.16;6339024;28;20191;-75
2021/11/03 05:59:48;;;;;;;23.75;13.02;;;;;;;9.96;100.00;100250.03;6338507;28;20186;-74
2021/11/03 06:02:53;;;;;;;27.30;14.07;;;;;;;9.97;100.00;100247.06;6338808;28;20183;-75
2021/11/03 06:05:57;;;;;;;26.83;13.20;;;;;;;9.87;100.00;100244.03;6338731;28;20211;-75
2021/11/03 06:09:01;;;;;;;29.52;14.25;;;;;;;9.76;100.00;100244.75;6337918;28;20214;-74
2021/11/03 06:12:08;;;;;;;25.83;14.80;;;;;;;9.86;100.00;100250.53;6337235;28;20228;-75
2021/11/03 06:15:16;;;;;;;27.88;15.13;;;;;;;9.79;100.00;100249.78;6338664;28;20246;-75
2021/11/03 06:18:24;;;;;;;25.33;13.57;;;;;;;9.85;100.00;100251.59;6337070;28;20501;-74
2021/11/03 06:21:28;;;;;;;30.02;13.80;;;;;;;9.75;100.00;100254.03;6338455;28;20183;-75
2021/11/03 06:24:35;;;;;;;23.00;13.57;;;;;;;9.79;100.00;100249.78;6337064;28;20183;-74
2021/11/03 06:27:40;;;;;;;23.70;13.88;;;;;;;9.90;100.00;100249.03;6336826;28;20375;-73
2021/11/03 06:30:45;;;;;;;29.13;15.20;;;;;;;9.81;100.00;100241.38;6337854;28;20187;-74
2021/11/03 06:33:50;;;;;;;31.70;15.52;;;;;;;9.91;100.00;100242.50;6338083;28;20215;-74
2021/11/03 06:36:54;;;;;;;29.98;15.60;;;;;;;9.78;100.00;100258.19;6338106;28;20186;-74
2021/11/03 06:39:59;;;;;;;29.48;15.40;;;;;;;9.85;100.00;100254.31;6337824;28;20254;-74
2021/11/03 06:43:04;;;;;;;26.55;14.68;;;;;;;9.95;100.00;100251.91;6337324;28;20220;-74
2021/11/03 06:46:10;;;;;;;32.55;15.77;;;;;;;9.89;100.00;100265.59;6336423;28;20183;-74
2021/11/03 06:49:17;;;;;;;33.30;16.05;;;;;;;9.77;100.00;100260.06;6337392;28;20194;-73
2021/11/03 06:52:23;;;;;;;34.53;15.43;;;;;;;9.73;100.00;100267.00;6337073;28;20214;-74
2021/11/03 06:55:31;;;;;;;29.55;15.63;;;;;;;9.73;100.00;100271.66;6336415;28;20238;-74
2021/11/03 06:58:37;;;;;;;36.63;17.27;;;;;;;9.72;100.00;100265.34;6336274;28;20474;-73
2021/11/03 07:01:41;;;;;;;41.00;19.17;;;;;;;9.71;100.00;100269.13;6336680;28;20246;-73
2021/11/03 07:04:47;;;;;;;42.53;20.38;;;;;;;9.83;100.00;100272.78;6337661;28;20183;-73
2021/11/03 07:07:51;;;;;;;42.85;21.15;;;;;;;9.74;100.00;100274.13;6336207;28;20500;-74
2021/11/03 07:10:58;;;;;;;44.05;19.83;;;;;;;9.85;100.00;100276.13;6336037;28;20436;-75
2021/11/03 07:14:02;;;;;;;44.80;20.92;;;;;;;9.87;100.00;100268.53;6337492;28;20250;-74
2021/11/03 07:17:11;;;;;;;46.22;21.05;;;;;;;9.79;99.97;100270.72;6337193;28;20199;-74
2021/11/03 07:20:18;;;;;;;46.22;20.77;;;;;;;9.78;99.64;100267.19;6337108;28;20266;-74
2021/11/03 07:23:24;;;;;;;44.70;21.23;;;;;;;9.85;100.00;100267.94;6337122;28;20183;-74
2021/11/03 07:26:29;;;;;;;40.08;20.63;;;;;;;9.83;98.59;100261.91;6337085;28;20189;-73
2021/11/03 07:29:34;;;;;;;43.50;20.27;;;;;;;9.75;98.29;100243.13;6336150;28;20240;-74
2021/11/03 07:32:38;;;;;;;47.70;21.27;;;;;;;9.76;99.23;100244.75;6335893;28;20198;-74
2021/11/03 07:35:45;;;;;;;43.22;21.65;;;;;;;9.91;98.13;100253.41;6336674;28;20253;-74
2021/11/03 07:38:50;;;;;;;49.33;21.35;;;;;;;9.92;98.41;100274.16;6335848;28;20422;-74
2021/11/03 07:42:10;;;;;;;46.60;21.35;;;;;;;9.82;99.98;100259.38;6337137;28;20193;-74
2021/11/03 07:45:22;;;;;;;42.85;20.77;;;;;;;9.79;99.17;100266.13;6318907;28;20205;-75
2021/11/03 07:48:28;;;;;;;44.42;21.40;;;;;;;9.74;98.90;100268.69;6336753;28;20238;-75
2021/11/03 07:51:34;;;;;;;44.03;20.85;;;;;;;9.80;98.83;100262.34;6335604;28;20345;-75
2021/11/03 07:54:39;;;;;;;46.40;21.10;;;;;;;9.72;100.00;100265.34;6317879;28;20241;-75
2021/11/03 07:57:43;;;;;;;49.80;21.83;;;;;;;9.63;100.00;100253.06;6339504;28;20254;-75
2021/11/03 08:00:48;;;;;;;47.10;21.38;;;;;;;9.80;99.04;100256.91;6341712;28;20250;-75
2021/11/03 08:03:52;;;;;;;48.53;21.02;;;;;;;9.92;97.76;100259.69;6341040;28;20182;-74
2021/11/03 08:06:58;;;;;;;48.83;22.40;;;;;;;9.79;98.01;100265.28;6341498;28;20183;-74
2021/11/03 08:10:03;;;;;;;50.42;22.80;;;;;;;9.85;97.67;100258.94;6341498;28;20183;-75
2021/11/03 08:13:13;;;;;;;50.20;23.35;;;;;;;9.70;99.15;100270.22;6341233;28;20240;-75
2021/11/03 08:16:17;;;;;;;53.05;23.20;;;;;;;9.77;98.74;100261.94;6341257;28;20285;-74
2021/11/03 08:19:25;;;;;;;55.72;23.15;;;;;;;9.87;97.93;100268.53;6340890;28;20281;-74
2021/11/03 08:22:33;;;;;;;50.67;22.40;;;;;;;9.77;98.31;100268.25;6340180;28;20190;-75
2021/11/03 08:25:37;;;;;;;54.95;22.83;;;;;;;9.90;96.71;100268.09;6341126;28;20250;-75
2021/11/03 08:28:41;;;;;;;50.15;23.00;;;;;;;9.86;96.53;100266.88;6339480;28;20509;-75
2021/11/03 08:31:47;;;;;;;51.55;22.45;;;;;;;9.82;96.54;100271.13;6340899;28;20182;-75
2021/11/03 08:34:54;;;;;;;48.42;23.35;;;;;;;9.80;97.08;100273.25;6339577;28;20482;-75
2021/11/03 08:38:03;;;;;;;56.90;22.65;;;;;;;9.81;96.42;100264.00;6340685;28;20193;-75
2021/11/03 08:41:09;;;;;;;51.83;22.65;;;;;;;9.69;96.96;100271.25;6340773;28;20183;-75
2021/11/03 08:44:14;;;;;;;54.90;22.15;;;;;;;9.89;96.74;100277.31;6339764;28;20190;-75
2021/11/03 08:47:19;;;;;;;50.58;22.73;;;;;;;9.83;96.73;100272.78;6340250;28;20252;-75
2021/11/03 08:50:33;;;;;;;57.42;24.15;;;;;;;9.78;97.32;100286.25;6339152;28;20240;-74
2021/11/03 08:53:39;;;;;;;56.35;23.42;;;;;;;9.84;96.95;100277.16;6340021;28;20227;-75
2021/11/03 08:56:43;;;;;;;50.90;21.73;;;;;;;9.83;96.21;100278.25;6339009;28;20475;-75
2021/11/03 08:59:48;;;;;;;52.78;22.85;;;;;;;9.74;96.93;100274.13;6338968;28;20186;-75
2021/11/03 09:02:53;;;;;;;54.78;22.70;;;;;;;9.67;97.96;100273.38;6339774;28;20183;-76
2021/11/03 09:06:00;;;;;;;53.28;23.50;;;;;;;9.79;96.85;100273.44;6338682;28;20205;-75
2021/11/03 09:09:07;;;;;;;55.25;23.00;;;;;;;9.74;97.11;100274.13;6338358;28;20514;-75
2021/11/03 09:12:11;;;;;;;58.25;22.25;;;;;;;9.75;96.97;100267.63;6339064;28;20183;-75
2021/11/03 09:15:18;;;;;;;57.08;23.08;;;;;;;9.79;95.78;100277.00;6338916;28;20250;-74
2021/11/03 09:18:29;;;;;;;55.13;22.70;;;;;;;9.68;96.75;100272.28;6338757;28;20250;-75
2021/11/03 09:21:33;;;;;;;55.45;22.67;;;;;;;9.80;96.04;100270.53;6339193;28;20224;-75
2021/11/03 09:24:38;;;;;;;49.25;22.67;;;;;;;9.76;96.64;100272.00;6338378;28;20183;-75
2021/11/03 09:27:44;;;;;;;46.38;22.23;;;;;;;9.84;95.95;100266.28;6338505;28;20183;-75
2021/11/03 09:30:48;;;;;;;49.22;22.10;;;;;;;9.80;96.95;100261.50;6339499;28;20189;-75
2021/11/03 09:33:52;;;;;;;48.70;21.25;;;;;;;9.73;96.57;100267.00;6338476;28;20183;-75
2021/11/03 09:37:00;;;;;;;52.78;22.48;;;;;;;9.77;96.78;100262.78;6339297;28;20214;-75
2021/11/03 09:40:11;;;;;;;50.05;20.98;;;;;;;9.76;97.50;100269.28;6321718;28;20202;-75
2021/11/03 09:43:32;;;;;;;48.00;22.02;;;;;;;9.98;95.06;100261.53;6338392;28;20183;-75
2021/11/03 09:46:38;;;;;;;51.63;21.88;;;;;;;9.84;95.89;100258.09;6339203;28;20258;-75
2021/11/03 09:49:48;;;;;;;50.40;21.23;;;;;;;9.84;95.20;100269.00;6338943;28;20273;-75
2021/11/03 09:52:55;;;;;;;45.25;21.52;;;;;;;9.82;95.40;100268.41;6338550;28;20199;-75
2021/11/03 09:56:01;;;;;;;47.33;20.77;;;;;;;9.91;94.86;100267.03;6338593;28;20183;-74
2021/11/03 09:59:22;;;;;;;49.30;22.05;;;;;;;9.94;95.24;100263.84;6338780;28;20262;-75
2021/11/03 10:02:39;;;;;;;51.35;22.40;;;;;;;10.05;94.03;100265.84;6337779;28;20183;-75
2021/11/03 10:05:49;;;;;;;48.05;20.63;;;;;;;10.02;94.51;100255.38;6338709;28;20215;-74
2021/11/03 10:08:54;;;;;;;44.40;20.45;;;;;;;10.00;94.82;100257.50;6338205;28;20213;-75
2021/11/03 10:12:02;;;;;;;45.58;20.10;;;;;;;10.08;93.91;100259.94;6338623;28;20254;-75
2021/11/03 10:15:07;;;;;;;48.03;20.98;;;;;;;10.09;93.58;100250.66;6338553;28;20182;-75
2021/11/03 10:18:20;;;;;;;43.20;21.20;;;;;;;10.01;93.93;100252.91;6338018;28;20190;-75
2021/11/03 10:21:27;;;;;;;41.75;20.33;;;;;;;9.93;94.35;100245.84;6337315;28;20187;-75
2021/11/03 10:24:40;;;;;;;44.90;20.13;;;;;;;9.95;95.52;100248.34;6337383;28;20249;-74
2021/11/03 10:27:52;;;;;;;45.92;20.17;;;;;;;9.95;94.63;100248.34;6336902;28;20454;-74
2021/11/03 10:30:57;;;;;;;40.65;19.35;;;;;;;9.99;94.86;100244.94;6337999;28;20207;-75
2021/11/03 10:34:05;;;;;;;43.00;20.27;;;;;;;9.93;94.96;100243.13;6337195;28;20294;-75
2021/11/03 10:37:19;;;;;;;46.08;19.67;;;;;;;10.02;93.73;100236.31;6337624;28;20183;-75
2021/11/03 10:40:28;;;;;;;41.22;19.60;;;;;;;10.08;93.15;100243.56;6337680;28;20191;-74
2021/11/03 10:43:36;;;;;;;40.45;19.70;;;;;;;10.04;93.37;100236.91;6337074;28;20183;-75
2021/11/03 10:46:45;;;;;;;45.40;20.73;;;;;;;10.15;92.57;100232.63;6337891;28;20246;-75
2021/11/03 10:50:15;;;;;;;44.50;19.90;;;;;;;10.00;93.91;100234.88;6337318;28;20218;-75
2021/11/03 10:53:24;;;;;;;38.38;18.98;;;;;;;10.01;94.52;100231.91;6334455;28;20237;-75
2021/11/03 10:56:32;;;;;;;42.50;18.83;;;;;;;9.83;95.48;100237.38;6337822;28;20218;-75
2021/11/03 10:59:48;;;;;;;41.83;18.42;;;;;;;10.02;94.60;100233.56;6336234;28;20473;-75
2021/11/03 11:02:58;;;;;;;40.78;19.55;;;;;;;9.95;94.92;100235.56;6336099;28;20214;-75
2021/11/03 11:06:11;;;;;;;39.20;19.95;;;;;;;10.01;94.17;100237.34;6336864;28;20289;-75
2021/11/03 11:09:27;;;;;;;44.65;20.17;;;;;;;10.00;93.78;100230.25;6337451;28;20274;-74
2021/11/03 11:12:33;;;;;;;39.92;19.52;;;;;;;9.98;93.78;100226.94;6337602;28;20251;-75
2021/11/03 11:15:51;;;;;;;42.47;19.42;;;;;;;9.99;94.26;100217.69;6337129;28;20258;-75
2021/11/03 11:19:09;;;;;;;47.40;20.10;;;;;;;10.08;94.05;100227.22;6336719;28;20222;-75
2021/11/03 11:22:30;;;;;;;44.15;19.65;;;;;;;10.09;94.32;100223.41;6336146;28;20477;-74
2021/11/03 11:25:44;;;;;;;41.88;20.27;;;;;;;10.14;94.36;100219.22;6337076;28;20190;-75
2021/11/03 11:28:53;;;;;;;44.42;21.00;;;;;;;10.18;94.42;100223.13;6337223;28;20183;-74
2021/11/03 11:32:04;;;;;;;45.65;20.73;;;;;;;10.13;94.67;100217.53;6340202;28;20203;-75
2021/11/03 11:35:24;;;;;;;40.60;18.73;;;;;;;10.16;95.23;100217.09;6340684;28;20387;-75
2021/11/03 11:38:37;;;;;;;42.40;20.02;;;;;;;10.19;94.35;100222.09;6342151;28;20183;-75
2021/11/03 11:42:01;;;;;;;38.72;19.63;;;;;;;10.33;93.18;100218.97;6341719;28;20187;-75
2021/11/03 11:45:14;;;;;;;39.05;19.65;;;;;;;10.29;93.23;100214.19;6341632;28;20183;-74
2021/11/03 11:48:29;;;;;;;40.08;19.58;;;;;;;10.25;94.21;100210.25;6341565;28;20210;-75
2021/11/03 11:51:37;;;;;;;40.85;19.73;;;;;;;10.19;94.55;100212.03;6341614;28;20252;-75
2021/11/03 11:55:02;;;;;;;45.08;19.98;;;;;;;9.95;95.87;100205.59;6340622;28;20298;-75
2021/11/03 11:58:26;;;;;;;41.22;20.42;;;;;;;9.91;97.16;100198.91;6341578;28;20344;-74
2021/11/03 12:01:42;;;;;;;50.53;20.42;;;;;;;9.90;97.76;100197.25;6341465;28;20219;-74
2021/11/03 12:04:48;;;;;;;42.60;20.38;;;;;;;10.04;97.23;100204.19;6341125;28;20187;-74
2021/11/03 12:08:14;;;;;;;39.28;19.17;;;;;;;10.10;96.90;100199.72;6341496;28;20252;-76
2021/11/03 12:11:21;;;;;;;44.28;20.17;;;;;;;10.09;97.00;100196.16;6339967;28;20513;-74
2021/11/03 12:14:39;;;;;;;48.45;20.55;;;;;;;10.03;97.58;100191.66;6341300;28;20290;-74
2021/11/03 12:17:58;;;;;;;42.60;19.35;;;;;;;10.11;97.47;100186.94;6340992;28;20183;-73
2021/11/03 12:21:16;;;;;;;46.75;20.50;;;;;;;10.12;97.25;100191.34;6340771;28;20209;-74
2021/11/03 12:24:39;;;;;;;42.50;19.98;;;;;;;10.07;98.45;100187.38;6340230;28;20190;-75
2021/11/03 12:27:45;;;;;;;39.65;19.83;;;;;;;10.10;98.54;100177.91;6340958;28;20190;-74
2021/11/03 12:31:08;;;;;;;44.40;19.48;;;;;;;10.07;97.89;100181.94;6340970;28;20271;-74
2021/11/03 12:34:29;;;;;;;39.70;18.75;;;;;;;10.01;98.63;100176.59;6340622;28;20190;-73
2021/11/03 12:37:36;;;;;;;42.53;18.60;;;;;;;10.05;98.26;100178.63;6340707;28;20190;-75
2021/11/03 12:40:43;;;;;;;44.20;18.27;;;;;;;10.08;98.48;100178.16;6340682;28;20251;-74
2021/11/03 12:43:50;;;;;;;43.45;18.10;;;;;;;10.16;98.07;100178.94;6338918;28;20435;-75
2021/11/03 12:46:54;;;;;;;42.55;20.00;;;;;;;10.07;99.03;100184.66;6339446;28;20436;-75
2021/11/03 12:50:07;;;;;;;36.33;17.95;;;;;;;10.08;98.95;100175.44;6339334;28;20398;-76
2021/11/03 12:53:18;;;;;;;38.58;18.98;;;;;;;10.14;98.68;100167.44;6339191;28;20467;-74
2021/11/03 12:56:26;;;;;;;36.85;17.50;;;;;;;10.06;98.91;100174.84;6339510;28;20237;-74
2021/11/03 12:59:33;;;;;;;37.53;17.67;;;;;;;10.13;98.48;100168.47;6340366;28;20215;-74
2021/11/03 13:02:40;;;;;;;41.00;18.73;;;;;;;10.22;98.06;100167.13;6339791;28;20187;-74
2021/11/03 13:05:47;;;;;;;38.35;18.38;;;;;;;10.28;97.41;100166.19;6339777;28;20251;-74
2021/11/03 13:08:55;;;;;;;40.58;18.08;;;;;;;10.17;99.14;100172.44;6338675;28;20524;-75
2021/11/03 13:11:59;;;;;;;39.20;17.92;;;;;;;10.24;98.08;100170.44;6338445;28;20242;-74
2021/11/03 13:15:11;;;;;;;42.05;17.60;;;;;;;10.26;98.07;100179.22;6339637;28;20187;-74
2021/11/03 13:18:22;;;;;;;40.58;18.48;;;;;;;10.32;97.39;100172.84;6339541;28;20183;-74
2021/11/03 13:21:33;;;;;;;42.25;18.15;;;;;;;10.19;97.89;100171.13;6338367;28;20545;-74
2021/11/03 13:24:40;;;;;;;37.50;17.73;;;;;;;10.28;98.26;100166.19;6338310;28;20205;-74
2021/11/03 13:27:44;;;;;;;40.25;18.88;;;;;;;10.23;98.35;100168.75;6338237;28;20440;-74
2021/11/03 13:30:56;;;;;;;36.88;16.88;;;;;;;10.20;97.91;100169.22;6339587;28;20210;-74
2021/11/03 13:34:15;;;;;;;34.97;16.27;;;;;;;10.02;98.89;100157.28;6338736;28;20251;-74
2021/11/03 13:37:24;;;;;;;41.75;17.65;;;;;;;10.13;99.10;100179.38;6338420;28;20222;-74
2021/11/03 13:40:33;;;;;;;35.55;17.42;;;;;;;10.14;99.40;100170.16;6339335;28;20293;-74
2021/11/03 13:43:37;;;;;;;34.50;15.85;;;;;;;10.25;97.97;100177.53;6337932;28;20214;-74
2021/11/03 13:46:41;;;;;;;35.80;16.67;;;;;;;10.26;98.41;100162.84;6339177;28;20221;-74
2021/11/03 13:49:45;;;;;;;34.38;17.13;;;;;;;10.17;99.09;100172.44;6338721;28;20249;-74
2021/11/03 13:52:55;;;;;;;33.42;16.60;;;;;;;10.22;98.64;100172.56;6338812;28;20289;-74
2021/11/03 13:56:15;;;;;;;35.10;17.45;;;;;;;10.07;99.65;100159.28;6338003;28;20229;-74
2021/11/03 13:59:25;;;;;;;38.58;17.70;;;;;;;10.11;99.17;100171.41;6338431;28;20258;-74
2021/11/03 14:02:37;;;;;;;32.45;16.83;;;;;;;10.17;98.89;100161.53;6338727;28;20187;-75
2021/11/03 14:05:45;;;;;;;37.78;17.80;;;;;;;10.11;98.42;100165.13;6337757;28;20194;-74
2021/11/03 14:08:51;;;;;;;31.80;16.48;;;;;;;10.00;100.00;100170.28;6337151;28;20264;-74
2021/11/03 14:12:00;;;;;;;36.45;17.63;;;;;;;10.15;98.93;100166.34;6338181;28;20248;-74
2021/11/03 14:15:06;;;;;;;43.45;17.98;;;;;;;10.20;98.35;100170.06;6338121;28;20182;-74
2021/11/03 14:18:17;;;;;;;38.35;16.80;;;;;;;10.27;98.06;100168.06;6336945;28;20184;-74